CheckWX is a tool to help pilots better visualize weather data.  It is not intended as a substitute for an official pre-flight weather briefing.

16:13:10 UTC

KRDM METAR
Roberts Field Airport
Redmond, Oregon, USA
Current

17 mins ago

KRDM 241556Z 18004KT 10SM CLR 02/00 A3001 RMK AO2 SLP167 T00170000
Observed
Jan-24 @ 15:56 UTC
Wind
  • 180° at 4 KTS
Visibility
10 SM
Flight Rules
VFR
Cloud Levels
  • Clear skies
Temperature
C / 36°F
Dewpoint
C / 32°F
Humidity
87%
Altimeter
30.01" Hg
Pressure
1016.22 hPa
Previous

1 hour ago

KRDM 241456Z 06004KT 10SM FEW065 02/00 A3000 RMK AO2 SLP164 T00220000 53015
Observed
Jan-24 @ 14:56 UTC
Wind
  • 060° at 4 KTS
Visibility
10 SM
Flight Rules
VFR
Cloud Levels
  • Few at 6,500' AGL
Temperature
C / 36°F
Dewpoint
C / 32°F
Humidity
87%
Altimeter
30" Hg
Pressure
1015.92 hPa
Previous

2 hours ago

KRDM 241356Z 21007KT 10SM FEW060 03/01 A2998 RMK AO2 SLP155 T00330006
Observed
Jan-24 @ 13:56 UTC
Wind
  • 210° at 7 KTS
Visibility
10 SM
Flight Rules
VFR
Cloud Levels
  • Few at 6,000' AGL
Temperature
C / 37°F
Dewpoint
C / 34°F
Humidity
87%
Altimeter
29.98" Hg
Pressure
1015.22 hPa